sensor_id;sensor_type;location;lat;lon;timestamp;P1;durP1;ratioP1;P2;durP2;ratioP2
48034;SDS011;33812;46.480;6.834;2024-02-26T00:03:05;2.70;;;1.38;;
48034;SDS011;33812;46.480;6.834;2024-02-26T00:07:07;1.42;;;0.80;;
48034;SDS011;33812;46.480;6.834;2024-02-26T00:11:09;0.98;;;0.88;;
48034;SDS011;33812;46.480;6.834;2024-02-26T00:15:12;1.65;;;1.00;;
48034;SDS011;33812;46.480;6.834;2024-02-26T00:19:14;3.03;;;0.93;;
48034;SDS011;33812;46.480;6.834;2024-02-26T00:23:15;1.23;;;0.80;;
48034;SDS011;33812;46.480;6.834;2024-02-26T00:27:17;1.80;;;0.80;;
48034;SDS011;33812;46.480;6.834;2024-02-26T00:31:20;9.95;;;1.05;;
48034;SDS011;33812;46.480;6.834;2024-02-26T00:35:23;1.00;;;0.70;;
48034;SDS011;33812;46.480;6.834;2024-02-26T00:39:26;0.88;;;0.60;;
48034;SDS011;33812;46.480;6.834;2024-02-26T00:43:28;1.55;;;0.80;;
48034;SDS011;33812;46.480;6.834;2024-02-26T00:47:33;1.02;;;0.80;;
48034;SDS011;33812;46.480;6.834;2024-02-26T00:51:34;1.60;;;0.70;;
48034;SDS011;33812;46.480;6.834;2024-02-26T00:55:36;1.63;;;0.93;;
48034;SDS011;33812;46.480;6.834;2024-02-26T00:59:38;1.05;;;0.80;;
48034;SDS011;33812;46.480;6.834;2024-02-26T01:03:41;1.17;;;0.75;;
48034;SDS011;33812;46.480;6.834;2024-02-26T01:07:43;3.03;;;0.80;;
48034;SDS011;33812;46.480;6.834;2024-02-26T01:11:46;1.08;;;0.73;;
48034;SDS011;33812;46.480;6.834;2024-02-26T01:15:47;2.22;;;0.57;;
48034;SDS011;33812;46.480;6.834;2024-02-26T01:19:51;1.27;;;0.60;;
48034;SDS011;33812;46.480;6.834;2024-02-26T01:23:53;0.80;;;0.67;;
48034;SDS011;33812;46.480;6.834;2024-02-26T01:27:55;1.02;;;0.70;;
48034;SDS011;33812;46.480;6.834;2024-02-26T01:31:57;0.70;;;0.50;;
48034;SDS011;33812;46.480;6.834;2024-02-26T01:36:00;0.95;;;0.70;;
48034;SDS011;33812;46.480;6.834;2024-02-26T01:40:02;2.30;;;0.52;;
48034;SDS011;33812;46.480;6.834;2024-02-26T01:44:05;0.73;;;0.63;;
48034;SDS011;33812;46.480;6.834;2024-02-26T01:48:07;0.65;;;0.40;;
48034;SDS011;33812;46.480;6.834;2024-02-26T01:52:12;0.90;;;0.60;;
48034;SDS011;33812;46.480;6.834;2024-02-26T01:56:14;1.05;;;0.43;;
48034;SDS011;33812;46.480;6.834;2024-02-26T02:00:18;1.10;;;0.70;;
48034;SDS011;33812;46.480;6.834;2024-02-26T02:04:21;0.65;;;0.50;;
48034;SDS011;33812;46.480;6.834;2024-02-26T02:08:26;0.50;;;0.40;;
48034;SDS011;33812;46.480;6.834;2024-02-26T02:12:28;1.38;;;0.68;;
48034;SDS011;33812;46.480;6.834;2024-02-26T02:16:33;0.65;;;0.43;;
48034;SDS011;33812;46.480;6.834;2024-02-26T02:20:36;0.52;;;0.40;;
48034;SDS011;33812;46.480;6.834;2024-02-26T02:24:38;0.60;;;0.47;;
48034;SDS011;33812;46.480;6.834;2024-02-26T02:28:40;0.70;;;0.50;;
48034;SDS011;33812;46.480;6.834;2024-02-26T02:32:42;0.47;;;0.40;;
48034;SDS011;33812;46.480;6.834;2024-02-26T02:36:51;1.88;;;0.60;;
48034;SDS011;33812;46.480;6.834;2024-02-26T02:40:53;0.85;;;0.38;;
48034;SDS011;33812;46.480;6.834;2024-02-26T02:44:55;0.47;;;0.47;;
48034;SDS011;33812;46.480;6.834;2024-02-26T02:48:57;1.38;;;0.38;;
48034;SDS011;33812;46.480;6.834;2024-02-26T02:53:00;0.80;;;0.43;;
48034;SDS011;33812;46.480;6.834;2024-02-26T02:57:02;0.47;;;0.40;;
48034;SDS011;33812;46.480;6.834;2024-02-26T03:01:06;0.98;;;0.73;;
48034;SDS011;33812;46.480;6.834;2024-02-26T03:05:08;0.60;;;0.40;;
48034;SDS011;33812;46.480;6.834;2024-02-26T03:09:11;0.73;;;0.40;;
48034;SDS011;33812;46.480;6.834;2024-02-26T03:13:13;0.40;;;0.32;;
48034;SDS011;33812;46.480;6.834;2024-02-26T03:17:16;0.68;;;0.60;;
48034;SDS011;33812;46.480;6.834;2024-02-26T03:21:18;0.43;;;0.43;;
48034;SDS011;33812;46.480;6.834;2024-02-26T03:25:21;0.30;;;0.30;;
48034;SDS011;33812;46.480;6.834;2024-02-26T03:29:24;1.55;;;0.50;;
48034;SDS011;33812;46.480;6.834;2024-02-26T03:33:25;0.68;;;0.32;;
48034;SDS011;33812;46.480;6.834;2024-02-26T03:37:27;0.50;;;0.30;;
48034;SDS011;33812;46.480;6.834;2024-02-26T03:41:31;0.60;;;0.40;;
48034;SDS011;33812;46.480;6.834;2024-02-26T03:45:33;0.50;;;0.30;;
48034;SDS011;33812;46.480;6.834;2024-02-26T03:49:35;0.32;;;0.30;;
48034;SDS011;33812;46.480;6.834;2024-02-26T03:53:36;0.30;;;0.30;;
48034;SDS011;33812;46.480;6.834;2024-02-26T03:57:40;0.50;;;0.30;;
48034;SDS011;33812;46.480;6.834;2024-02-26T04:01:44;0.45;;;0.40;;
48034;SDS011;33812;46.480;6.834;2024-02-26T04:05:47;0.40;;;0.30;;
48034;SDS011;33812;46.480;6.834;2024-02-26T04:09:49;0.20;;;0.20;;
48034;SDS011;33812;46.480;6.834;2024-02-26T04:13:52;0.30;;;0.30;;
48034;SDS011;33812;46.480;6.834;2024-02-26T04:17:53;0.40;;;0.20;;
48034;SDS011;33812;46.480;6.834;2024-02-26T04:21:55;0.20;;;0.20;;
48034;SDS011;33812;46.480;6.834;2024-02-26T04:25:57;0.57;;;0.50;;
48034;SDS011;33812;46.480;6.834;2024-02-26T04:30:01;0.50;;;0.38;;
48034;SDS011;33812;46.480;6.834;2024-02-26T04:34:04;0.20;;;0.20;;
48034;SDS011;33812;46.480;6.834;2024-02-26T04:38:05;0.63;;;0.40;;
48034;SDS011;33812;46.480;6.834;2024-02-26T04:42:07;0.40;;;0.30;;
48034;SDS011;33812;46.480;6.834;2024-02-26T04:46:10;1.00;;;0.28;;
48034;SDS011;33812;46.480;6.834;2024-02-26T04:50:12;0.30;;;0.20;;
48034;SDS011;33812;46.480;6.834;2024-02-26T04:54:14;0.75;;;0.30;;
48034;SDS011;33812;46.480;6.834;2024-02-26T04:58:15;0.50;;;0.20;;
48034;SDS011;33812;46.480;6.834;2024-02-26T05:02:18;0.55;;;0.38;;
48034;SDS011;33812;46.480;6.834;2024-02-26T05:06:20;0.40;;;0.30;;
48034;SDS011;33812;46.480;6.834;2024-02-26T05:10:22;0.40;;;0.40;;
48034;SDS011;33812;46.480;6.834;2024-02-26T05:14:24;0.43;;;0.40;;
48034;SDS011;33812;46.480;6.834;2024-02-26T05:18:27;0.55;;;0.40;;
48034;SDS011;33812;46.480;6.834;2024-02-26T05:22:29;0.35;;;0.30;;
48034;SDS011;33812;46.480;6.834;2024-02-26T05:26:31;0.45;;;0.38;;
48034;SDS011;33812;46.480;6.834;2024-02-26T05:30:32;0.28;;;0.20;;
48034;SDS011;33812;46.480;6.834;2024-02-26T05:34:37;0.32;;;0.22;;
48034;SDS011;33812;46.480;6.834;2024-02-26T05:38:41;0.90;;;0.30;;
48034;SDS011;33812;46.480;6.834;2024-02-26T05:42:46;0.20;;;0.20;;
48034;SDS011;33812;46.480;6.834;2024-02-26T05:46:49;0.20;;;0.20;;
48034;SDS011;33812;46.480;6.834;2024-02-26T05:50:52;0.55;;;0.30;;
48034;SDS011;33812;46.480;6.834;2024-02-26T05:54:54;0.40;;;0.30;;
48034;SDS011;33812;46.480;6.834;2024-02-26T05:58:55;3.45;;;0.52;;
48034;SDS011;33812;46.480;6.834;2024-02-26T06:02:57;0.45;;;0.30;;
48034;SDS011;33812;46.480;6.834;2024-02-26T06:07:00;1.05;;;0.20;;
48034;SDS011;33812;46.480;6.834;2024-02-26T06:11:04;2.13;;;0.30;;
48034;SDS011;33812;46.480;6.834;2024-02-26T06:19:09;6.78;;;0.30;;
48034;SDS011;33812;46.480;6.834;2024-02-26T06:23:12;3.70;;;0.98;;
48034;SDS011;33812;46.480;6.834;2024-02-26T06:27:14;6.65;;;0.30;;
48034;SDS011;33812;46.480;6.834;2024-02-26T06:31:16;29.92;;;8.52;;
48034;SDS011;33812;46.480;6.834;2024-02-26T06:35:18;6.72;;;3.90;;
48034;SDS011;33812;46.480;6.834;2024-02-26T06:39:21;6.03;;;2.88;;
48034;SDS011;33812;46.480;6.834;2024-02-26T06:43:23;8.67;;;1.80;;
48034;SDS011;33812;46.480;6.834;2024-02-26T06:47:25;7.03;;;2.55;;
48034;SDS011;33812;46.480;6.834;2024-02-26T06:51:27;4.45;;;2.28;;
48034;SDS011;33812;46.480;6.834;2024-02-26T06:55:30;4.97;;;2.13;;
48034;SDS011;33812;46.480;6.834;2024-02-26T06:59:32;5.13;;;1.80;;
48034;SDS011;33812;46.480;6.834;2024-02-26T07:03:34;3.17;;;1.70;;
48034;SDS011;33812;46.480;6.834;2024-02-26T07:07:36;6.53;;;1.58;;
48034;SDS011;33812;46.480;6.834;2024-02-26T07:11:39;4.97;;;1.63;;
48034;SDS011;33812;46.480;6.834;2024-02-26T07:15:42;9.47;;;1.67;;
48034;SDS011;33812;46.480;6.834;2024-02-26T07:19:43;7.45;;;1.50;;
48034;SDS011;33812;46.480;6.834;2024-02-26T07:23:45;3.42;;;1.10;;
48034;SDS011;33812;46.480;6.834;2024-02-26T07:27:48;3.05;;;1.10;;
48034;SDS011;33812;46.480;6.834;2024-02-26T07:31:50;1.90;;;1.17;;
48034;SDS011;33812;46.480;6.834;2024-02-26T07:35:52;2.92;;;1.42;;
48034;SDS011;33812;46.480;6.834;2024-02-26T07:39:54;1.85;;;1.02;;
48034;SDS011;33812;46.480;6.834;2024-02-26T07:43:57;3.92;;;1.20;;
48034;SDS011;33812;46.480;6.834;2024-02-26T07:47:59;2.95;;;0.98;;
48034;SDS011;33812;46.480;6.834;2024-02-26T07:52:01;5.85;;;1.00;;
48034;SDS011;33812;46.480;6.834;2024-02-26T07:56:02;1.35;;;0.80;;
48034;SDS011;33812;46.480;6.834;2024-02-26T08:00:06;3.80;;;0.98;;
48034;SDS011;33812;46.480;6.834;2024-02-26T08:04:09;1.77;;;0.80;;
48034;SDS011;33812;46.480;6.834;2024-02-26T08:08:11;2.53;;;0.82;;
48034;SDS011;33812;46.480;6.834;2024-02-26T08:12:12;5.97;;;1.10;;
48034;SDS011;33812;46.480;6.834;2024-02-26T08:16:15;0.73;;;0.68;;
48034;SDS011;33812;46.480;6.834;2024-02-26T08:20:17;2.47;;;0.80;;
48034;SDS011;33812;46.480;6.834;2024-02-26T08:24:19;0.88;;;0.68;;
48034;SDS011;33812;46.480;6.834;2024-02-26T08:28:21;1.02;;;0.57;;
48034;SDS011;33812;46.480;6.834;2024-02-26T08:32:24;2.10;;;0.70;;
48034;SDS011;33812;46.480;6.834;2024-02-26T08:36:25;2.47;;;0.60;;
48034;SDS011;33812;46.480;6.834;2024-02-26T08:40:27;0.63;;;0.50;;
48034;SDS011;33812;46.480;6.834;2024-02-26T08:44:29;0.90;;;0.60;;
48034;SDS011;33812;46.480;6.834;2024-02-26T08:48:32;2.50;;;0.63;;
48034;SDS011;33812;46.480;6.834;2024-02-26T08:52:34;0.65;;;0.47;;
48034;SDS011;33812;46.480;6.834;2024-02-26T08:56:36;0.85;;;0.40;;
48034;SDS011;33812;46.480;6.834;2024-02-26T09:00:37;0.60;;;0.38;;
48034;SDS011;33812;46.480;6.834;2024-02-26T09:04:40;3.25;;;0.70;;
48034;SDS011;33812;46.480;6.834;2024-02-26T09:08:42;0.73;;;0.40;;
48034;SDS011;33812;46.480;6.834;2024-02-26T09:12:44;1.35;;;0.60;;
48034;SDS011;33812;46.480;6.834;2024-02-26T09:16:45;0.90;;;0.60;;
48034;SDS011;33812;46.480;6.834;2024-02-26T09:20:49;3.50;;;0.55;;
48034;SDS011;33812;46.480;6.834;2024-02-26T09:24:51;0.70;;;0.40;;
48034;SDS011;33812;46.480;6.834;2024-02-26T09:28:53;0.80;;;0.65;;
48034;SDS011;33812;46.480;6.834;2024-02-26T09:32:55;1.25;;;0.50;;
48034;SDS011;33812;46.480;6.834;2024-02-26T09:36:58;0.68;;;0.50;;
48034;SDS011;33812;46.480;6.834;2024-02-26T09:41:00;0.30;;;0.30;;
48034;SDS011;33812;46.480;6.834;2024-02-26T09:45:02;0.43;;;0.40;;
48034;SDS011;33812;46.480;6.834;2024-02-26T09:49:08;0.88;;;0.43;;
48034;SDS011;33812;46.480;6.834;2024-02-26T09:53:12;0.70;;;0.40;;
48034;SDS011;33812;46.480;6.834;2024-02-26T09:57:15;0.90;;;0.50;;
48034;SDS011;33812;46.480;6.834;2024-02-26T10:01:18;0.85;;;0.40;;
48034;SDS011;33812;46.480;6.834;2024-02-26T10:05:20;1.00;;;0.40;;
48034;SDS011;33812;46.480;6.834;2024-02-26T10:09:24;0.50;;;0.40;;
48034;SDS011;33812;46.480;6.834;2024-02-26T10:13:26;0.35;;;0.30;;
48034;SDS011;33812;46.480;6.834;2024-02-26T10:17:27;0.50;;;0.35;;
48034;SDS011;33812;46.480;6.834;2024-02-26T10:21:30;0.93;;;0.43;;
48034;SDS011;33812;46.480;6.834;2024-02-26T10:25:33;0.30;;;0.30;;
48034;SDS011;33812;46.480;6.834;2024-02-26T10:29:34;0.30;;;0.30;;
48034;SDS011;33812;46.480;6.834;2024-02-26T10:33:37;0.52;;;0.40;;
48034;SDS011;33812;46.480;6.834;2024-02-26T10:37:39;0.50;;;0.35;;
48034;SDS011;33812;46.480;6.834;2024-02-26T10:41:43;0.32;;;0.30;;
48034;SDS011;33812;46.480;6.834;2024-02-26T10:45:45;0.47;;;0.30;;
48034;SDS011;33812;46.480;6.834;2024-02-26T10:49:47;0.28;;;0.25;;
48034;SDS011;33812;46.480;6.834;2024-02-26T10:53:49;0.30;;;0.30;;
48034;SDS011;33812;46.480;6.834;2024-02-26T10:57:58;0.40;;;0.30;;
48034;SDS011;33812;46.480;6.834;2024-02-26T11:02:00;0.30;;;0.30;;
48034;SDS011;33812;46.480;6.834;2024-02-26T11:06:02;0.20;;;0.20;;
48034;SDS011;33812;46.480;6.834;2024-02-26T11:10:06;0.38;;;0.30;;
48034;SDS011;33812;46.480;6.834;2024-02-26T11:14:12;0.70;;;0.35;;
48034;SDS011;33812;46.480;6.834;2024-02-26T11:18:16;0.20;;;0.20;;
48034;SDS011;33812;46.480;6.834;2024-02-26T11:22:19;0.77;;;0.50;;
48034;SDS011;33812;46.480;6.834;2024-02-26T11:26:22;0.93;;;0.30;;
48034;SDS011;33812;46.480;6.834;2024-02-26T11:30:28;0.77;;;0.35;;
48034;SDS011;33812;46.480;6.834;2024-02-26T11:34:34;0.63;;;0.30;;
48034;SDS011;33812;46.480;6.834;2024-02-26T11:38:35;0.60;;;0.40;;
48034;SDS011;33812;46.480;6.834;2024-02-26T11:42:43;0.30;;;0.25;;
48034;SDS011;33812;46.480;6.834;2024-02-26T11:46:46;1.65;;;0.30;;
48034;SDS011;33812;46.480;6.834;2024-02-26T11:50:49;0.50;;;0.40;;
48034;SDS011;33812;46.480;6.834;2024-02-26T11:54:53;5.15;;;0.30;;
48034;SDS011;33812;46.480;6.834;2024-02-26T11:58:59;0.65;;;0.40;;
48034;SDS011;33812;46.480;6.834;2024-02-26T12:03:03;2.35;;;0.30;;
48034;SDS011;33812;46.480;6.834;2024-02-26T12:07:10;0.85;;;0.30;;
48034;SDS011;33812;46.480;6.834;2024-02-26T12:11:14;1.50;;;0.30;;
48034;SDS011;33812;46.480;6.834;2024-02-26T12:15:16;0.85;;;0.20;;
48034;SDS011;33812;46.480;6.834;2024-02-26T12:19:21;0.50;;;0.22;;
48034;SDS011;33812;46.480;6.834;2024-02-26T12:23:24;1.35;;;0.50;;
48034;SDS011;33812;46.480;6.834;2024-02-26T12:27:26;0.73;;;0.30;;
48034;SDS011;33812;46.480;6.834;2024-02-26T12:31:28;1.00;;;0.38;;
48034;SDS011;33812;46.480;6.834;2024-02-26T12:35:32;0.77;;;0.40;;
48034;SDS011;33812;46.480;6.834;2024-02-26T12:39:34;1.30;;;0.50;;
48034;SDS011;33812;46.480;6.834;2024-02-26T12:43:36;0.70;;;0.30;;
48034;SDS011;33812;46.480;6.834;2024-02-26T12:47:39;1.02;;;0.55;;
48034;SDS011;33812;46.480;6.834;2024-02-26T12:51:42;2.97;;;0.35;;
48034;SDS011;33812;46.480;6.834;2024-02-26T12:55:45;1.08;;;0.20;;
48034;SDS011;33812;46.480;6.834;2024-02-26T12:59:47;0.20;;;0.20;;
48034;SDS011;33812;46.480;6.834;2024-02-26T13:03:49;0.30;;;0.20;;
48034;SDS011;33812;46.480;6.834;2024-02-26T13:07:52;0.45;;;0.40;;
48034;SDS011;33812;46.480;6.834;2024-02-26T13:11:55;0.25;;;0.25;;
48034;SDS011;33812;46.480;6.834;2024-02-26T13:16:03;1.70;;;0.30;;
48034;SDS011;33812;46.480;6.834;2024-02-26T13:20:08;0.20;;;0.20;;
48034;SDS011;33812;46.480;6.834;2024-02-26T13:24:12;3.05;;;0.30;;
48034;SDS011;33812;46.480;6.834;2024-02-26T13:28:15;0.50;;;0.30;;
48034;SDS011;33812;46.480;6.834;2024-02-26T13:32:20;0.90;;;0.20;;
48034;SDS011;33812;46.480;6.834;2024-02-26T13:36:22;1.08;;;0.30;;
48034;SDS011;33812;46.480;6.834;2024-02-26T13:40:25;1.95;;;0.30;;
48034;SDS011;33812;46.480;6.834;2024-02-26T13:44:27;0.75;;;0.47;;
48034;SDS011;33812;46.480;6.834;2024-02-26T13:48:29;0.60;;;0.35;;
48034;SDS011;33812;46.480;6.834;2024-02-26T13:52:30;2.58;;;0.20;;
48034;SDS011;33812;46.480;6.834;2024-02-26T13:56:35;1.67;;;0.38;;
48034;SDS011;33812;46.480;6.834;2024-02-26T14:00:37;0.90;;;0.25;;
48034;SDS011;33812;46.480;6.834;2024-02-26T14:04:39;1.08;;;0.20;;
48034;SDS011;33812;46.480;6.834;2024-02-26T14:08:41;1.13;;;0.40;;
48034;SDS011;33812;46.480;6.834;2024-02-26T14:12:44;0.60;;;0.30;;
48034;SDS011;33812;46.480;6.834;2024-02-26T14:16:46;1.75;;;0.32;;
48034;SDS011;33812;46.480;6.834;2024-02-26T14:20:48;0.32;;;0.30;;
48034;SDS011;33812;46.480;6.834;2024-02-26T14:24:50;5.25;;;0.30;;
48034;SDS011;33812;46.480;6.834;2024-02-26T14:28:53;0.68;;;0.38;;
48034;SDS011;33812;46.480;6.834;2024-02-26T14:32:55;0.82;;;0.22;;
48034;SDS011;33812;46.480;6.834;2024-02-26T14:36:56;1.38;;;0.30;;
48034;SDS011;33812;46.480;6.834;2024-02-26T14:40:58;6.05;;;0.35;;
48034;SDS011;33812;46.480;6.834;2024-02-26T14:45:01;1.88;;;0.35;;
48034;SDS011;33812;46.480;6.834;2024-02-26T14:49:05;3.22;;;0.40;;
48034;SDS011;33812;46.480;6.834;2024-02-26T14:53:06;2.35;;;0.30;;
48034;SDS011;33812;46.480;6.834;2024-02-26T14:57:08;1.70;;;0.30;;
48034;SDS011;33812;46.480;6.834;2024-02-26T15:01:11;5.53;;;0.57;;
48034;SDS011;33812;46.480;6.834;2024-02-26T15:05:13;0.70;;;0.40;;
48034;SDS011;33812;46.480;6.834;2024-02-26T15:09:17;0.55;;;0.40;;
48034;SDS011;33812;46.480;6.834;2024-02-26T15:13:19;0.55;;;0.50;;
48034;SDS011;33812;46.480;6.834;2024-02-26T15:17:22;0.63;;;0.50;;
48034;SDS011;33812;46.480;6.834;2024-02-26T15:21:24;1.75;;;0.52;;
48034;SDS011;33812;46.480;6.834;2024-02-26T15:25:26;1.42;;;0.50;;
48034;SDS011;33812;46.480;6.834;2024-02-26T15:29:27;1.10;;;0.88;;
48034;SDS011;33812;46.480;6.834;2024-02-26T15:33:31;0.85;;;0.50;;
48034;SDS011;33812;46.480;6.834;2024-02-26T15:37:32;1.10;;;0.40;;
48034;SDS011;33812;46.480;6.834;2024-02-26T15:41:34;1.60;;;0.50;;
48034;SDS011;33812;46.480;6.834;2024-02-26T15:45:36;1.00;;;0.60;;
48034;SDS011;33812;46.480;6.834;2024-02-26T15:49:39;1.17;;;0.40;;
48034;SDS011;33812;46.480;6.834;2024-02-26T15:53:41;0.30;;;0.30;;
48034;SDS011;33812;46.480;6.834;2024-02-26T15:57:42;1.15;;;0.50;;
48034;SDS011;33812;46.480;6.834;2024-02-26T16:01:44;0.70;;;0.50;;
48034;SDS011;33812;46.480;6.834;2024-02-26T16:05:49;1.42;;;0.60;;
48034;SDS011;33812;46.480;6.834;2024-02-26T16:09:51;0.60;;;0.40;;
48034;SDS011;33812;46.480;6.834;2024-02-26T16:13:54;0.98;;;0.50;;
48034;SDS011;33812;46.480;6.834;2024-02-26T16:18:03;0.88;;;0.60;;
48034;SDS011;33812;46.480;6.834;2024-02-26T16:22:06;1.00;;;0.50;;
48034;SDS011;33812;46.480;6.834;2024-02-26T16:26:08;1.02;;;0.30;;
48034;SDS011;33812;46.480;6.834;2024-02-26T16:30:10;0.40;;;0.30;;
48034;SDS011;33812;46.480;6.834;2024-02-26T16:34:13;0.73;;;0.38;;
48034;SDS011;33812;46.480;6.834;2024-02-26T16:38:16;0.65;;;0.40;;
48034;SDS011;33812;46.480;6.834;2024-02-26T16:42:18;0.40;;;0.38;;
48034;SDS011;33812;46.480;6.834;2024-02-26T16:46:20;2.55;;;1.17;;
48034;SDS011;33812;46.480;6.834;2024-02-26T16:50:21;0.40;;;0.20;;
48034;SDS011;33812;46.480;6.834;2024-02-26T16:54:24;2.15;;;0.60;;
48034;SDS011;33812;46.480;6.834;2024-02-26T16:58:26;0.52;;;0.50;;
48034;SDS011;33812;46.480;6.834;2024-02-26T17:02:28;12.88;;;0.73;;
48034;SDS011;33812;46.480;6.834;2024-02-26T17:06:29;4.57;;;0.90;;
48034;SDS011;33812;46.480;6.834;2024-02-26T17:10:33;9.65;;;1.23;;
48034;SDS011;33812;46.480;6.834;2024-02-26T17:14:35;8.27;;;2.47;;
48034;SDS011;33812;46.480;6.834;2024-02-26T17:18:37;15.02;;;3.15;;
48034;SDS011;33812;46.480;6.834;2024-02-26T17:22:39;7.85;;;2.42;;
48034;SDS011;33812;46.480;6.834;2024-02-26T17:26:42;12.82;;;2.03;;
48034;SDS011;33812;46.480;6.834;2024-02-26T17:30:44;9.50;;;2.10;;
48034;SDS011;33812;46.480;6.834;2024-02-26T17:34:46;8.10;;;1.95;;
48034;SDS011;33812;46.480;6.834;2024-02-26T17:38:49;10.82;;;1.90;;
48034;SDS011;33812;46.480;6.834;2024-02-26T17:42:53;5.75;;;1.77;;
48034;SDS011;33812;46.480;6.834;2024-02-26T17:46:55;5.28;;;1.60;;
48034;SDS011;33812;46.480;6.834;2024-02-26T17:50:56;8.73;;;1.98;;
48034;SDS011;33812;46.480;6.834;2024-02-26T17:54:58;9.32;;;1.60;;
48034;SDS011;33812;46.480;6.834;2024-02-26T17:59:01;8.05;;;1.63;;
48034;SDS011;33812;46.480;6.834;2024-02-26T18:03:03;5.93;;;0.60;;
48034;SDS011;33812;46.480;6.834;2024-02-26T18:07:05;1.45;;;0.50;;
48034;SDS011;33812;46.480;6.834;2024-02-26T18:11:08;3.00;;;0.50;;
48034;SDS011;33812;46.480;6.834;2024-02-26T18:15:13;8.27;;;0.50;;
48034;SDS011;33812;46.480;6.834;2024-02-26T18:19:14;1.35;;;0.60;;
48034;SDS011;33812;46.480;6.834;2024-02-26T18:23:16;3.80;;;0.60;;
48034;SDS011;33812;46.480;6.834;2024-02-26T18:27:18;2.15;;;0.50;;
48034;SDS011;33812;46.480;6.834;2024-02-26T18:31:21;1.27;;;0.40;;
48034;SDS011;33812;46.480;6.834;2024-02-26T18:35:23;1.80;;;0.50;;
48034;SDS011;33812;46.480;6.834;2024-02-26T18:39:26;6.70;;;0.70;;
48034;SDS011;33812;46.480;6.834;2024-02-26T18:43:27;25.15;;;0.85;;
48034;SDS011;33812;46.480;6.834;2024-02-26T18:47:31;1.33;;;0.50;;
48034;SDS011;33812;46.480;6.834;2024-02-26T18:51:32;6.80;;;0.70;;
48034;SDS011;33812;46.480;6.834;2024-02-26T18:55:35;10.45;;;0.95;;
48034;SDS011;33812;46.480;6.834;2024-02-26T18:59:37;5.22;;;0.80;;
48034;SDS011;33812;46.480;6.834;2024-02-26T19:03:41;9.88;;;0.95;;
48034;SDS011;33812;46.480;6.834;2024-02-26T19:07:44;2.83;;;0.80;;
48034;SDS011;33812;46.480;6.834;2024-02-26T19:11:46;6.80;;;0.90;;
48034;SDS011;33812;46.480;6.834;2024-02-26T19:19:54;12.25;;;1.35;;
48034;SDS011;33812;46.480;6.834;2024-02-26T19:23:57;8.63;;;2.85;;
48034;SDS011;33812;46.480;6.834;2024-02-26T19:27:59;12.07;;;1.67;;
48034;SDS011;33812;46.480;6.834;2024-02-26T19:32:00;10.23;;;1.50;;
48034;SDS011;33812;46.480;6.834;2024-02-26T19:36:06;8.93;;;1.30;;
48034;SDS011;33812;46.480;6.834;2024-02-26T19:40:08;6.43;;;1.60;;
48034;SDS011;33812;46.480;6.834;2024-02-26T19:44:11;39.78;;;2.38;;
48034;SDS011;33812;46.480;6.834;2024-02-26T19:48:13;15.43;;;1.80;;
48034;SDS011;33812;46.480;6.834;2024-02-26T19:52:16;7.60;;;1.20;;
48034;SDS011;33812;46.480;6.834;2024-02-26T19:56:20;10.07;;;1.42;;
48034;SDS011;33812;46.480;6.834;2024-02-26T20:00:22;6.35;;;1.23;;
48034;SDS011;33812;46.480;6.834;2024-02-26T20:04:24;21.85;;;1.52;;
48034;SDS011;33812;46.480;6.834;2024-02-26T20:08:28;7.78;;;1.08;;
48034;SDS011;33812;46.480;6.834;2024-02-26T20:12:31;10.50;;;1.30;;
48034;SDS011;33812;46.480;6.834;2024-02-26T20:16:33;7.57;;;1.17;;
48034;SDS011;33812;46.480;6.834;2024-02-26T20:20:34;6.53;;;1.13;;
48034;SDS011;33812;46.480;6.834;2024-02-26T20:24:38;8.65;;;1.17;;
48034;SDS011;33812;46.480;6.834;2024-02-26T20:28:39;3.72;;;1.08;;
48034;SDS011;33812;46.480;6.834;2024-02-26T20:32:42;6.30;;;1.10;;
48034;SDS011;33812;46.480;6.834;2024-02-26T20:36:44;8.38;;;1.23;;
48034;SDS011;33812;46.480;6.834;2024-02-26T20:40:47;3.65;;;0.75;;
48034;SDS011;33812;46.480;6.834;2024-02-26T20:44:50;7.10;;;1.08;;
48034;SDS011;33812;46.480;6.834;2024-02-26T20:48:51;3.67;;;0.70;;
48034;SDS011;33812;46.480;6.834;2024-02-26T20:52:53;6.22;;;1.13;;
48034;SDS011;33812;46.480;6.834;2024-02-26T20:56:56;2.95;;;0.73;;
48034;SDS011;33812;46.480;6.834;2024-02-26T21:00:58;2.90;;;0.90;;
48034;SDS011;33812;46.480;6.834;2024-02-26T21:05:00;2.80;;;0.80;;
48034;SDS011;33812;46.480;6.834;2024-02-26T21:09:02;3.10;;;0.63;;
48034;SDS011;33812;46.480;6.834;2024-02-26T21:13:09;9.50;;;0.90;;
48034;SDS011;33812;46.480;6.834;2024-02-26T21:17:12;7.57;;;1.00;;
48034;SDS011;33812;46.480;6.834;2024-02-26T21:21:15;2.38;;;0.77;;
48034;SDS011;33812;46.480;6.834;2024-02-26T21:25:19;2.55;;;0.90;;
48034;SDS011;33812;46.480;6.834;2024-02-26T21:29:22;2.17;;;0.60;;
48034;SDS011;33812;46.480;6.834;2024-02-26T21:33:25;1.60;;;0.68;;
48034;SDS011;33812;46.480;6.834;2024-02-26T21:37:27;5.03;;;1.33;;
48034;SDS011;33812;46.480;6.834;2024-02-26T21:41:29;2.97;;;0.80;;
48034;SDS011;33812;46.480;6.834;2024-02-26T21:45:32;4.78;;;1.00;;
48034;SDS011;33812;46.480;6.834;2024-02-26T21:49:34;3.25;;;0.90;;
48034;SDS011;33812;46.480;6.834;2024-02-26T21:53:35;4.28;;;0.85;;
48034;SDS011;33812;46.480;6.834;2024-02-26T21:57:37;3.80;;;0.90;;
48034;SDS011;33812;46.480;6.834;2024-02-26T22:01:41;2.00;;;0.80;;
48034;SDS011;33812;46.480;6.834;2024-02-26T22:05:43;2.40;;;0.60;;
48034;SDS011;33812;46.480;6.834;2024-02-26T22:09:44;5.45;;;1.27;;
48034;SDS011;33812;46.480;6.834;2024-02-26T22:13:47;2.60;;;0.90;;
48034;SDS011;33812;46.480;6.834;2024-02-26T22:17:50;3.53;;;0.98;;
48034;SDS011;33812;46.480;6.834;2024-02-26T22:21:52;2.47;;;0.68;;
48034;SDS011;33812;46.480;6.834;2024-02-26T22:25:57;1.73;;;0.77;;
48034;SDS011;33812;46.480;6.834;2024-02-26T22:29:59;2.70;;;0.55;;
48034;SDS011;33812;46.480;6.834;2024-02-26T22:34:02;3.38;;;0.65;;
48034;SDS011;33812;46.480;6.834;2024-02-26T22:38:05;1.58;;;0.60;;
48034;SDS011;33812;46.480;6.834;2024-02-26T22:42:06;4.53;;;0.70;;
48034;SDS011;33812;46.480;6.834;2024-02-26T22:46:09;1.60;;;0.85;;
48034;SDS011;33812;46.480;6.834;2024-02-26T22:50:12;1.20;;;0.75;;
48034;SDS011;33812;46.480;6.834;2024-02-26T22:54:14;1.60;;;0.60;;
48034;SDS011;33812;46.480;6.834;2024-02-26T22:58:16;2.42;;;0.77;;
48034;SDS011;33812;46.480;6.834;2024-02-26T23:02:18;1.27;;;0.40;;
48034;SDS011;33812;46.480;6.834;2024-02-26T23:06:21;2.22;;;0.50;;
48034;SDS011;33812;46.480;6.834;2024-02-26T23:10:23;4.75;;;0.50;;
48034;SDS011;33812;46.480;6.834;2024-02-26T23:14:26;3.92;;;0.60;;
48034;SDS011;33812;46.480;6.834;2024-02-26T23:18:28;1.85;;;0.55;;
48034;SDS011;33812;46.480;6.834;2024-02-26T23:22:32;2.15;;;0.70;;
48034;SDS011;33812;46.480;6.834;2024-02-26T23:26:33;2.10;;;0.70;;
48034;SDS011;33812;46.480;6.834;2024-02-26T23:30:35;0.95;;;0.50;;
48034;SDS011;33812;46.480;6.834;2024-02-26T23:34:37;1.27;;;0.60;;
48034;SDS011;33812;46.480;6.834;2024-02-26T23:38:40;0.95;;;0.50;;
48034;SDS011;33812;46.480;6.834;2024-02-26T23:42:42;1.80;;;0.70;;
48034;SDS011;33812;46.480;6.834;2024-02-26T23:46:45;1.60;;;0.70;;
48034;SDS011;33812;46.480;6.834;2024-02-26T23:50:47;1.50;;;0.50;;
48034;SDS011;33812;46.480;6.834;2024-02-26T23:54:50;1.88;;;1.05;;
48034;SDS011;33812;46.480;6.834;2024-02-26T23:58:52;1.70;;;0.70;;
